sim
Sign-in with your pilot id or email,
or register
Callsign
Passwort

Schedule Details

Flight Number: OEO2165
Departure: Vilnius International Airport (EYVI) at 15:10
Arrival: Munich Airport (EDDM) at 17:25

Weather Information
Getting current METAR information for EYVI 240720Z 18009KT CAVOK 16/10 Q1009 NOSIG
Getting current METAR information for EDDM 240720Z 24008KT 9999 FEW035 BKN080 15/13 Q1010 NOSIG

Schedule Frequency

Route Map